Time;durP1;ratioP1;P1;durP2;ratioP2;P2;SDS_P1;SDS_P2;PMS_P1;PMS_P2;Temp;Humidity;BMP_temperature;BMP_pressure;BME280_temperature;BME280_humidity;BME280_pressure;Samples;Min_cycle;Max_cycle;Signal;HPM_P1;HPM_P2
2023/04/03 00:01:09;;;;;;;3.38;2.83;;;;;;;11.87;47.08;98713.22;5025545;28;20028;-84
2023/04/03 00:03:35;;;;;;;4.82;2.70;;;;;;;11.95;47.42;98729.03;5054458;28;20154;-84
2023/04/03 00:06:01;;;;;;;4.85;3.28;;;;;;;12.08;47.19;98747.41;5035609;28;20479;-84
2023/04/03 00:08:26;;;;;;;6.35;3.20;;;;;;;12.12;47.66;98736.28;5035962;28;20028;-83
2023/04/03 00:10:52;;;;;;;4.45;2.47;;;;;;;12.16;48.16;98728.75;5035845;28;20025;-83
2023/04/03 00:13:18;;;;;;;6.35;2.80;;;;;;;12.25;47.84;98727.78;5035993;28;20032;-84
2023/04/03 00:15:44;;;;;;;8.48;2.90;;;;;;;12.07;47.49;98728.16;5033436;28;20036;-84
2023/04/03 00:18:09;;;;;;;5.70;3.30;;;;;;;11.97;47.81;98709.06;5036416;28;20122;-84
2023/04/03 00:20:35;;;;;;;6.32;3.22;;;;;;;11.79;47.96;98735.47;5035937;28;20063;-83
2023/04/03 00:23:03;;;;;;;4.57;2.75;;;;;;;11.69;48.14;98729.56;5036044;28;20033;-84
2023/04/03 00:25:29;;;;;;;4.30;2.67;;;;;;;11.62;48.79;98724.59;5036071;28;20116;-85
2023/04/03 00:27:54;;;;;;;3.60;2.90;;;;;;;11.72;48.20;98728.88;5036336;28;20463;-84
2023/04/03 00:30:21;;;;;;;5.78;2.75;;;;;;;11.79;48.67;98741.06;5053382;28;20401;-83
2023/04/03 00:32:51;;;;;;;4.70;3.15;;;;;;;11.87;48.03;98742.06;5035850;28;20025;-84
2023/04/03 00:35:19;;;;;;;4.93;3.13;;;;;;;11.77;47.74;98720.19;5036513;28;20100;-84
2023/04/03 00:37:45;;;;;;;5.05;3.08;;;;;;;11.76;48.29;98740.97;5036295;28;20048;-83
2023/04/03 00:40:13;;;;;;;5.03;2.53;;;;;;;11.43;48.45;98728.09;5035954;28;20029;-84
2023/04/03 00:42:41;;;;;;;3.38;2.40;;;;;;;11.42;48.70;98730.09;5034669;28;20028;-84
2023/04/03 00:45:06;;;;;;;3.15;2.50;;;;;;;11.38;48.66;98729.19;5034971;28;20107;-84
2023/04/03 00:47:32;;;;;;;5.63;2.70;;;;;;;11.21;48.91;98730.31;5035757;28;20474;-84
2023/04/03 00:49:58;;;;;;;9.32;2.78;;;;;;;11.34;49.01;98733.88;5036319;28;20021;-84
2023/04/03 00:52:28;;;;;;;4.20;2.33;;;;;;;11.29;49.41;98717.34;5035380;28;20523;-84
2023/04/03 00:55:00;;;;;;;3.55;2.28;;;;;;;11.50;48.87;98731.91;5035746;28;20032;-84
2023/04/03 00:57:27;;;;;;;3.35;2.10;;;;;;;11.50;48.64;98709.50;5034776;28;20024;-84
2023/04/03 01:00:03;;;;;;;3.42;2.40;;;;;;;11.62;48.88;98731.03;5035369;28;20420;-84
2023/04/03 01:02:28;;;;;;;4.25;2.28;;;;;;;11.60;48.85;98724.97;5034680;28;20050;-83
2023/04/03 01:04:54;;;;;;;3.80;2.50;;;;;;;11.58;48.89;98724.50;5036378;28;20123;-84
2023/04/03 01:07:23;;;;;;;6.63;3.33;;;;;;;11.60;48.96;98718.53;5054306;28;20495;-85
2023/04/03 01:09:52;;;;;;;3.75;2.55;;;;;;;11.39;48.95;98716.81;5034470;28;20055;-84
2023/04/03 01:12:30;;;;;;;5.80;2.50;;;;;;;10.99;49.49;98720.50;5034953;28;20033;-84
2023/04/03 01:15:07;;;;;;;9.05;3.13;;;;;;;11.07;50.02;98706.34;5035207;28;20560;-84
2023/04/03 01:17:39;;;;;;;3.45;2.53;;;;;;;10.93;50.17;98725.53;5034120;28;20461;-84
2023/04/03 01:20:14;;;;;;;3.70;3.13;;;;;;;10.73;50.73;98722.56;5034612;28;20028;-83
2023/04/03 01:22:48;;;;;;;3.22;2.80;;;;;;;10.69;51.64;98730.06;5033173;28;20039;-83
2023/04/03 01:25:14;;;;;;;6.25;4.28;;;;;;;10.52;51.69;98729.16;5034742;28;20032;-83
2023/04/03 01:27:40;;;;;;;7.80;3.90;;;;;;;10.29;52.30;98740.00;5035386;28;20411;-84
2023/04/03 01:30:06;;;;;;;8.65;4.38;;;;;;;10.21;52.61;98736.16;5052306;28;20033;-84
2023/04/03 01:32:32;;;;;;;6.43;3.92;;;;;;;10.01;52.79;98723.13;5017255;28;20021;-84
2023/04/03 01:34:57;;;;;;;6.97;4.80;;;;;;;9.95;53.32;98731.75;5052044;28;20064;-84
2023/04/03 01:37:23;;;;;;;5.20;3.00;;;;;;;9.84;53.28;98713.81;5034615;28;20053;-84
2023/04/03 01:39:48;;;;;;;4.63;3.10;;;;;;;9.83;53.90;98717.78;5052150;28;20028;-83
2023/04/03 01:42:15;;;;;;;4.32;2.80;;;;;;;9.72;54.23;98714.66;5032884;28;20063;-84
2023/04/03 01:44:41;;;;;;;6.57;3.50;;;;;;;9.70;54.93;98730.91;5034340;28;20048;-85
2023/04/03 01:47:07;;;;;;;4.82;3.13;;;;;;;9.47;55.01;98711.00;5032946;28;20033;-84
2023/04/03 01:49:32;;;;;;;5.90;3.85;;;;;;;9.75;54.77;98733.50;5034349;28;20464;-83
2023/04/03 01:51:58;;;;;;;6.47;3.85;;;;;;;9.76;54.96;98726.75;5033050;28;20119;-83
2023/04/03 01:54:23;;;;;;;7.97;4.45;;;;;;;9.64;55.10;98735.09;5033979;28;20110;-83
2023/04/03 01:56:49;;;;;;;8.35;4.38;;;;;;;9.71;55.11;98735.31;5033306;28;20029;-84
2023/04/03 01:59:16;;;;;;;6.18;3.75;;;;;;;9.79;55.16;98740.00;5051165;28;20043;-84
2023/04/03 02:01:43;;;;;;;6.38;3.67;;;;;;;9.73;55.47;98732.19;5034112;28;20017;-83
2023/04/03 02:04:09;;;;;;;9.95;4.60;;;;;;;9.82;54.71;98744.09;5033562;28;20104;-83
2023/04/03 02:06:34;;;;;;;6.57;5.00;;;;;;;9.77;54.67;98741.50;5049597;28;20219;-84
2023/04/03 02:09:00;;;;;;;7.25;4.18;;;;;;;9.86;55.01;98747.81;5063759;28;20032;-84
2023/04/03 02:11:25;;;;;;;7.03;3.92;;;;;;;9.78;54.82;98745.94;5033063;28;20029;-83
2023/04/03 02:13:51;;;;;;;5.88;3.38;;;;;;;9.82;54.41;98744.09;5051531;28;20028;-84
2023/04/03 02:16:16;;;;;;;11.90;7.57;;;;;;;9.54;54.57;98712.03;5025279;28;20083;-84
2023/04/03 02:18:42;;;;;;;4.53;3.67;;;;;;;9.48;54.90;98715.41;5014239;28;20033;-84
2023/04/03 02:21:08;;;;;;;4.57;3.00;;;;;;;9.54;55.28;98739.97;5031481;28;20025;-84
2023/04/03 02:23:35;;;;;;;6.50;3.53;;;;;;;9.53;55.35;98726.34;5030138;28;20430;-83
2023/04/03 02:26:15;;;;;;;4.97;3.63;;;;;;;9.50;55.70;98738.22;5033286;28;20487;-84
2023/04/03 02:28:43;;;;;;;5.65;3.80;;;;;;;9.62;55.92;98734.63;5033019;28;20040;-84
2023/04/03 02:31:10;;;;;;;5.13;3.50;;;;;;;9.78;55.78;98743.16;5033416;28;20500;-84
2023/04/03 02:33:36;;;;;;;8.68;4.28;;;;;;;9.64;55.58;98744.28;5033307;28;20025;-84
2023/04/03 02:36:04;;;;;;;6.53;4.35;;;;;;;9.75;55.93;98738.25;5051568;28;20025;-85
2023/04/03 02:38:30;;;;;;;7.05;4.50;;;;;;;9.54;55.52;98734.38;5050337;28;20032;-84
2023/04/03 02:41:11;;;;;;;6.95;4.28;;;;;;;9.55;55.95;98736.00;5033832;28;20139;-84
2023/04/03 02:43:37;;;;;;;11.90;4.72;;;;;;;9.56;55.49;98731.25;5030737;28;20079;-84
2023/04/03 02:46:04;;;;;;;7.60;5.07;;;;;;;9.56;55.83;98731.25;5038229;28;20013;-83
2023/04/03 02:48:29;;;;;;;8.10;5.10;;;;;;;9.29;56.99;98730.75;5051805;28;20029;-84
2023/04/03 02:50:55;;;;;;;9.43;5.20;;;;;;;9.07;57.21;98727.19;5033448;28;20021;-84
2023/04/03 02:53:21;;;;;;;9.63;6.40;;;;;;;9.22;57.53;98728.47;5033609;28;20053;-83
2023/04/03 02:55:47;;;;;;;15.88;10.27;;;;;;;9.23;57.12;98720.94;5033677;28;20082;-83
2023/04/03 02:58:12;;;;;;;13.35;8.48;;;;;;;9.39;57.29;98724.69;5032571;28;20139;-84
2023/04/03 03:00:38;;;;;;;11.20;6.32;;;;;;;9.30;56.94;98704.47;5033800;28;20483;-84
2023/04/03 03:03:04;;;;;;;10.13;6.45;;;;;;;9.36;56.73;98719.81;5034043;28;20028;-84
2023/04/03 03:05:30;;;;;;;8.07;4.65;;;;;;;9.27;57.29;98707.91;5050590;28;20450;-83
2023/04/03 03:07:56;;;;;;;10.15;5.38;;;;;;;9.27;57.38;98710.72;5033122;28;20087;-84
2023/04/03 03:10:22;;;;;;;11.48;6.00;;;;;;;9.27;57.39;98688.38;5034446;28;20033;-84
2023/04/03 03:12:47;;;;;;;9.00;5.85;;;;;;;9.37;57.86;98701.09;5034156;28;20131;-84
2023/04/03 03:15:13;;;;;;;7.90;6.07;;;;;;;9.09;57.17;98669.06;5049712;28;20091;-84
2023/04/03 03:17:39;;;;;;;10.68;6.60;;;;;;;9.39;56.98;98705.16;5033574;28;20059;-84
2023/04/03 03:20:05;;;;;;;12.02;6.85;;;;;;;9.36;56.74;98699.47;5033715;28;20136;-84
2023/04/03 03:22:32;;;;;;;14.82;8.85;;;;;;;9.47;56.45;98709.03;5033241;28;20032;-84
2023/04/03 03:24:57;;;;;;;13.07;8.38;;;;;;;9.08;57.23;98683.34;5032650;28;20086;-84
2023/04/03 03:27:23;;;;;;;24.58;12.07;;;;;;;9.16;57.36;98701.13;5032844;28;20025;-83
2023/04/03 03:29:49;;;;;;;26.17;13.52;;;;;;;8.90;57.72;98696.63;5032569;28;20485;-84
2023/04/03 03:32:14;;;;;;;13.27;8.85;;;;;;;8.71;58.61;98676.47;5032268;28;20041;-83
2023/04/03 03:34:40;;;;;;;12.80;7.95;;;;;;;8.69;59.27;98694.72;5032664;28;20084;-83
2023/04/03 03:37:05;;;;;;;38.28;9.80;;;;;;;8.62;59.02;98702.81;5029345;28;20424;-83
2023/04/03 03:39:31;;;;;;;12.60;8.63;;;;;;;8.46;59.04;98683.88;5030531;28;20030;-83
2023/04/03 03:41:56;;;;;;;12.75;8.40;;;;;;;8.55;59.49;98711.72;5029988;28;20030;-84
2023/04/03 03:44:22;;;;;;;14.65;8.82;;;;;;;8.61;59.30;98710.34;5032680;28;20036;-83
2023/04/03 03:46:47;;;;;;;11.98;9.32;;;;;;;8.80;59.09;98714.63;5031601;28;20536;-84
2023/04/03 03:49:15;;;;;;;14.07;8.18;;;;;;;9.01;58.61;98727.72;5034100;28;20048;-84
2023/04/03 03:51:41;;;;;;;11.38;7.47;;;;;;;8.92;59.02;98728.63;5032725;28;20033;-84
2023/04/03 03:54:07;;;;;;;8.95;6.05;;;;;;;8.87;58.23;98733.59;5033298;28;20082;-84
2023/04/03 03:56:33;;;;;;;18.30;8.48;;;;;;;8.73;58.93;98712.38;5034631;28;20033;-84
2023/04/03 03:58:59;;;;;;;20.55;10.73;;;;;;;8.81;59.20;98742.19;5032963;28;20401;-84
2023/04/03 04:01:25;;;;;;;23.90;12.43;;;;;;;8.78;59.37;98711.38;5032623;28;20040;-84
2023/04/03 04:03:51;;;;;;;13.75;7.90;;;;;;;8.88;59.63;98746.38;5032683;28;20029;-84
2023/04/03 04:06:16;;;;;;;20.58;8.23;;;;;;;8.83;58.83;98720.34;5032123;28;20025;-84
2023/04/03 04:08:45;;;;;;;20.85;8.20;;;;;;;8.83;58.73;98736.25;5033996;28;20041;-84
2023/04/03 04:11:10;;;;;;;10.10;5.70;;;;;;;8.90;59.13;98749.63;5043181;28;20475;-83
2023/04/03 04:13:36;;;;;;;14.63;6.45;;;;;;;8.89;58.59;98754.41;5014441;28;20065;-83
2023/04/03 04:16:02;;;;;;;23.02;8.82;;;;;;;8.80;58.40;98715.41;5019664;28;20033;-83
2023/04/03 04:18:27;;;;;;;30.25;10.13;;;;;;;8.88;58.80;98735.22;5032731;28;20488;-84
2023/04/03 04:20:53;;;;;;;24.52;10.10;;;;;;;8.89;58.91;98745.22;5019947;28;20053;-84
2023/04/03 04:23:19;;;;;;;32.80;12.73;;;;;;;8.79;58.59;98711.00;5033759;28;20112;-83
2023/04/03 04:25:45;;;;;;;15.70;6.15;;;;;;;8.99;58.71;98754.00;5032247;28;20033;-84
2023/04/03 04:28:11;;;;;;;24.10;7.55;;;;;;;8.94;58.50;98739.44;5032887;28;20558;-84
2023/04/03 04:30:37;;;;;;;22.27;8.55;;;;;;;9.04;58.91;98763.31;5033571;28;20029;-84
2023/04/03 04:33:03;;;;;;;71.72;27.17;;;;;;;8.80;58.83;98723.78;5033614;28;20476;-84
2023/04/03 04:35:29;;;;;;;35.45;16.17;;;;;;;8.78;59.18;98719.72;5030683;28;20049;-83
2023/04/03 04:37:54;;;;;;;27.08;14.32;;;;;;;8.97;59.41;98739.56;5032620;28;20048;-83
2023/04/03 04:40:20;;;;;;;46.25;17.23;;;;;;;9.17;58.72;98747.41;5032054;28;20029;-84
2023/04/03 04:42:46;;;;;;;42.85;18.30;;;;;;;9.50;58.58;98763.34;5032322;28;20060;-84
2023/04/03 04:45:12;;;;;;;43.40;17.55;;;;;;;9.48;58.48;98768.44;5031605;28;20022;-83
2023/04/03 04:47:37;;;;;;;33.15;12.98;;;;;;;9.40;58.93;98733.88;5031429;28;20507;-84
2023/04/03 04:50:03;;;;;;;52.42;26.67;;;;;;;9.41;59.33;98758.69;5029339;28;20033;-84
2023/04/03 04:52:29;;;;;;;54.85;31.85;;;;;;;9.22;58.86;98756.38;5029737;28;20028;-84
2023/04/03 04:54:55;;;;;;;47.20;25.88;;;;;;;8.92;59.09;98730.56;5029760;28;20454;-84
2023/04/03 04:57:20;;;;;;;40.05;24.75;;;;;;;8.78;60.06;98737.25;5024955;28;20045;-84
2023/04/03 04:59:46;;;;;;;34.85;19.55;;;;;;;8.84;59.07;98733.13;5030126;28;20037;-84
2023/04/03 05:02:12;;;;;;;26.63;16.55;;;;;;;8.97;59.27;98761.06;5027808;28;20028;-84
2023/04/03 05:04:37;;;;;;;43.72;24.65;;;;;;;8.67;60.19;98758.34;5026251;28;20065;-83
2023/04/03 05:07:03;;;;;;;22.33;10.27;;;;;;;8.62;61.11;98756.56;5027755;28;20508;-84
2023/04/03 05:09:28;;;;;;;8.23;5.25;;;;;;;8.49;61.75;98758.44;5030195;28;20405;-83
2023/04/03 05:11:57;;;;;;;13.45;6.57;;;;;;;8.54;61.72;98760.25;5030488;28;20507;-83
2023/04/03 05:14:22;;;;;;;42.58;7.20;;;;;;;8.62;61.95;98758.56;5027389;28;20036;-83
2023/04/03 05:16:48;;;;;;;16.55;7.45;;;;;;;8.56;62.71;98764.31;5044320;28;20033;-84
2023/04/03 05:19:14;;;;;;;33.50;7.43;;;;;;;8.63;62.17;98769.38;5030996;28;20081;-83
2023/04/03 05:21:48;;;;;;;24.02;12.50;;;;;;;8.63;62.98;98768.53;5031405;28;20034;-83
2023/04/03 05:24:15;;;;;;;17.65;10.23;;;;;;;8.99;61.96;98789.44;5030787;28;20511;-83
2023/04/03 05:26:43;;;;;;;16.92;8.90;;;;;;;9.02;61.65;98774.78;5030331;28;20036;-82
2023/04/03 05:29:09;;;;;;;16.20;7.78;;;;;;;9.36;61.23;98795.16;5027776;28;20416;-83
2023/04/03 05:31:35;;;;;;;23.33;10.80;;;;;;;9.53;60.55;98794.16;5032029;28;20037;-83
2023/04/03 05:34:01;;;;;;;46.78;14.70;;;;;;;9.50;60.80;98794.03;5029228;28;20534;-83
2023/04/03 05:36:26;;;;;;;34.55;15.07;;;;;;;9.43;61.33;98785.44;5030133;28;20534;-83
2023/04/03 05:38:52;;;;;;;40.92;20.05;;;;;;;9.53;61.99;98794.16;5030378;28;20057;-83
2023/04/03 05:41:20;;;;;;;40.90;23.15;;;;;;;9.48;61.62;98796.38;5029331;28;20484;-83
2023/04/03 05:43:46;;;;;;;34.10;18.02;;;;;;;9.46;61.58;98788.31;5026715;28;20033;-84
2023/04/03 05:46:14;;;;;;;22.45;14.63;;;;;;;9.46;61.15;98795.91;5027161;28;20095;-83
2023/04/03 05:48:44;;;;;;;26.92;15.45;;;;;;;9.49;61.46;98800.78;5026756;28;20037;-83
2023/04/03 05:51:23;;;;;;;32.33;12.88;;;;;;;9.63;60.81;98792.91;5029152;28;20033;-83
2023/04/03 05:53:56;;;;;;;26.30;11.40;;;;;;;9.53;61.61;98783.00;5043185;28;20029;-83
2023/04/03 05:56:27;;;;;;;37.97;12.70;;;;;;;9.95;60.76;98814.72;5029256;28;20052;-83
2023/04/03 05:58:52;;;;;;;23.77;13.23;;;;;;;10.16;59.53;98819.41;5026790;28;20034;-83
2023/04/03 06:01:18;;;;;;;23.58;10.75;;;;;;;10.28;58.97;98821.41;5024176;28;20026;-83
2023/04/03 06:03:43;;;;;;;13.88;8.35;;;;;;;10.32;58.93;98817.59;5028866;28;20033;-84
2023/04/03 06:06:14;;;;;;;19.08;8.70;;;;;;;10.32;57.87;98811.16;5029221;28;20104;-83
2023/04/03 06:08:40;;;;;;;16.70;8.02;;;;;;;10.24;56.79;98799.72;5030352;28;20029;-83
2023/04/03 06:11:05;;;;;;;11.70;7.45;;;;;;;10.15;57.60;98807.44;5025653;28;20033;-83
2023/04/03 06:13:31;;;;;;;10.48;6.00;;;;;;;10.13;58.71;98818.13;5023864;28;20037;-83
2023/04/03 06:15:57;;;;;;;9.63;6.07;;;;;;;10.20;58.66;98815.59;5028852;28;20037;-83
2023/04/03 06:18:22;;;;;;;19.17;8.45;;;;;;;10.20;59.46;98817.56;5030775;28;20032;-83
2023/04/03 06:20:48;;;;;;;19.90;7.80;;;;;;;9.97;60.09;98804.84;5023686;28;20037;-83
2023/04/03 06:23:13;;;;;;;24.90;9.10;;;;;;;10.19;60.50;98813.13;5029160;28;20504;-83
2023/04/03 06:25:39;;;;;;;12.90;8.05;;;;;;;10.20;60.11;98817.56;5029090;28;20029;-83
2023/04/03 06:28:05;;;;;;;12.20;6.60;;;;;;;10.34;60.12;98792.88;5028241;28;20838;-84
2023/04/03 06:30:31;;;;;;;6.57;3.70;;;;;;;10.27;59.54;98763.88;5024462;28;20056;-85
2023/04/03 06:32:56;;;;;;;6.40;3.70;;;;;;;10.28;58.71;98766.31;5029728;28;20124;-85
2023/04/03 06:35:23;;;;;;;5.68;3.00;;;;;;;10.58;57.03;98805.25;5028795;28;20492;-85
2023/04/03 06:37:49;;;;;;;6.43;2.88;;;;;;;10.53;57.14;98806.28;5025272;28;20054;-84
2023/04/03 06:40:26;;;;;;;7.50;3.30;;;;;;;10.57;56.48;98822.38;5026990;28;20601;-84
2023/04/03 06:42:51;;;;;;;4.63;2.95;;;;;;;10.50;56.42;98803.38;5018691;28;20364;-84
2023/04/03 06:45:17;;;;;;;5.82;3.35;;;;;;;10.48;57.29;98803.72;5029362;28;20025;-84
2023/04/03 06:47:43;;;;;;;4.45;3.33;;;;;;;10.79;56.89;98827.47;5029428;28;20022;-84
2023/04/03 06:50:11;;;;;;;6.20;4.22;;;;;;;10.82;56.67;98801.56;5029141;28;20021;-84
2023/04/03 06:52:37;;;;;;;11.70;4.43;;;;;;;10.92;56.57;98799.47;5028610;28;20460;-84
2023/04/03 06:55:05;;;;;;;7.68;4.45;;;;;;;11.06;56.07;98815.88;5029222;28;20180;-84
2023/04/03 06:57:31;;;;;;;7.07;4.82;;;;;;;11.28;56.56;98822.91;5028864;28;20029;-84
2023/04/03 06:59:56;;;;;;;7.43;3.90;;;;;;;11.31;55.84;98822.19;5030266;28;20412;-84
2023/04/03 07:02:22;;;;;;;4.78;3.90;;;;;;;11.44;54.64;98811.75;5030321;28;20026;-84
2023/04/03 07:04:47;;;;;;;11.68;4.38;;;;;;;11.72;54.14;98838.13;5029393;28;20036;-84
2023/04/03 07:07:21;;;;;;;7.80;4.80;;;;;;;11.71;54.10;98828.09;5030040;28;20460;-84
2023/04/03 07:09:47;;;;;;;6.55;4.63;;;;;;;11.86;53.96;98824.50;5034744;28;20561;-85
2023/04/03 07:12:13;;;;;;;6.57;4.00;;;;;;;12.05;54.17;98837.00;5032088;28;20148;-85
2023/04/03 07:14:39;;;;;;;8.00;3.80;;;;;;;12.10;53.40;98847.13;5032837;28;20500;-86
2023/04/03 07:17:05;;;;;;;4.43;3.65;;;;;;;12.14;53.45;98851.66;5034165;28;20036;-85
2023/04/03 07:19:31;;;;;;;8.93;4.88;;;;;;;12.03;53.08;98830.94;5033422;28;20025;-84
2023/04/03 07:21:56;;;;;;;13.43;8.82;;;;;;;11.89;52.58;98829.38;5032551;28;20026;-84
2023/04/03 07:24:22;;;;;;;13.32;7.05;;;;;;;11.81;53.47;98802.31;5032850;28;20102;-84
2023/04/03 07:26:52;;;;;;;8.52;6.00;;;;;;;12.01;53.42;98828.50;5032309;28;20055;-85
2023/04/03 07:29:21;;;;;;;41.95;32.53;;;;;;;12.09;53.64;98809.91;5028154;28;20076;-85
2023/04/03 07:31:47;;;;;;;6.38;5.15;;;;;;;12.45;51.94;98809.97;5032815;28;20099;-85
2023/04/03 07:34:13;;;;;;;11.95;6.20;;;;;;;12.19;52.66;98795.34;5040289;28;20044;-85
2023/04/03 07:36:38;;;;;;;13.07;5.65;;;;;;;12.36;52.85;98805.34;5034779;28;20025;-85
2023/04/03 07:39:04;;;;;;;10.98;6.35;;;;;;;12.29;51.25;98788.38;5035511;28;20028;-84
2023/04/03 07:41:30;;;;;;;7.45;5.18;;;;;;;12.59;50.46;98793.47;5036222;28;20075;-85
2023/04/03 07:43:56;;;;;;;8.55;3.65;;;;;;;12.67;48.61;98794.47;5036503;28;20040;-85
2023/04/03 07:46:22;;;;;;;7.45;5.38;;;;;;;12.78;49.79;98780.66;5035299;28;20021;-85
2023/04/03 07:48:48;;;;;;;12.50;5.15;;;;;;;12.91;49.69;98793.38;5035737;28;20021;-85
2023/04/03 07:51:14;;;;;;;10.15;5.22;;;;;;;12.92;49.62;98766.13;5033375;28;20403;-85
2023/04/03 07:53:40;;;;;;;9.45;4.20;;;;;;;13.19;46.94;98791.56;5033012;28;20029;-86
2023/04/03 07:56:06;;;;;;;6.07;4.18;;;;;;;13.32;47.36;98795.84;5035679;28;20372;-85
2023/04/03 07:58:32;;;;;;;19.92;12.30;;;;;;;13.19;47.89;98780.31;5035399;28;20154;-85
2023/04/03 08:00:57;;;;;;;7.38;4.95;;;;;;;13.32;47.33;98776.19;5035572;28;20025;-86
2023/04/03 08:03:23;;;;;;;4.75;3.63;;;;;;;13.16;48.42;98767.03;5035522;28;20474;-85
2023/04/03 08:05:49;;;;;;;9.65;4.28;;;;;;;13.38;46.48;98792.72;5034779;28;20052;-85
2023/04/03 08:08:21;;;;;;;5.05;4.13;;;;;;;13.43;46.37;98784.00;5034547;28;20040;-89
2023/04/03 08:10:54;;;;;;;12.98;4.22;;;;;;;13.54;45.79;98762.59;5034390;28;20108;-89
2023/04/03 08:13:20;;;;;;;7.97;4.53;;;;;;;13.72;45.83;98795.81;5036222;28;20082;-89
2023/04/03 08:15:46;;;;;;;7.75;4.22;;;;;;;13.46;46.94;98786.94;5033014;28;20036;-90
2023/04/03 08:18:12;;;;;;;8.05;5.18;;;;;;;13.62;46.15;98791.63;5050109;28;20020;-90
2023/04/03 08:20:40;;;;;;;7.65;4.47;;;;;;;13.60;47.09;98789.19;5036390;28;20036;-90
2023/04/03 08:23:06;;;;;;;9.18;3.88;;;;;;;13.66;47.03;98780.47;5034859;28;20028;-89
2023/04/03 08:25:32;;;;;;;9.77;4.43;;;;;;;13.60;47.17;98782.75;5036080;28;20060;-89
2023/04/03 08:27:58;;;;;;;6.38;3.75;;;;;;;13.54;47.55;98750.53;5031904;28;20029;-92
2023/04/03 08:30:24;;;;;;;4.85;3.63;;;;;;;13.81;46.51;98775.91;5035874;28;20033;-86
2023/04/03 08:32:49;;;;;;;5.47;3.92;;;;;;;13.68;46.96;98738.75;5035393;28;20025;-91
2023/04/03 08:35:15;;;;;;;8.25;4.80;;;;;;;13.65;46.17;98733.88;5028946;28;20424;-90
2023/04/03 08:37:44;;;;;;;5.22;3.20;;;;;;;13.47;46.08;98732.38;5029580;28;20033;-89
2023/04/03 08:40:14;;;;;;;6.05;3.60;;;;;;;13.67;45.97;98723.06;5030136;28;20029;-90
2023/04/03 08:43:01;;;;;;;5.43;3.10;;;;;;;13.90;46.58;98757.63;5032894;28;20128;-90
2023/04/03 08:45:35;;;;;;;4.95;3.40;;;;;;;13.71;48.63;98750.06;5031495;28;20029;-89
2023/04/03 08:48:07;;;;;;;3.78;2.63;;;;;;;13.65;49.31;98745.91;5048498;28;20051;-89
2023/04/03 08:50:41;;;;;;;2.95;2.60;;;;;;;13.55;49.91;98715.63;5032868;28;20025;-92
2023/04/03 08:53:19;;;;;;;9.18;3.65;;;;;;;13.62;49.61;98721.38;5032349;28;20037;-91
2023/04/03 08:55:46;;;;;;;17.55;3.45;;;;;;;13.58;49.01;98723.31;5031402;28;20183;-90
2023/04/03 08:58:16;;;;;;;5.47;2.80;;;;;;;13.64;48.99;98740.69;5031937;28;20082;-90
2023/04/03 09:00:50;;;;;;;5.90;3.10;;;;;;;13.57;48.80;98750.59;5028841;28;20029;-91
2023/04/03 09:03:19;;;;;;;8.57;3.80;;;;;;;13.47;48.73;98711.88;5023383;28;20029;-91
2023/04/03 09:05:55;;;;;;;4.35;3.17;;;;;;;13.74;48.64;98734.41;5031672;28;20029;-91
2023/04/03 09:08:31;;;;;;;7.13;3.47;;;;;;;13.96;48.51;98737.59;5028872;28;20487;-93
2023/04/03 09:11:07;;;;;;;4.68;3.08;;;;;;;13.98;48.50;98740.84;5029980;28;20025;-92
2023/04/03 09:14:00;;;;;;;6.93;2.75;;;;;;;14.07;47.50;98747.03;5028973;28;20032;-93
2023/04/03 09:16:57;;;;;;;3.08;2.67;;;;;;;14.24;47.03;98739.25;5045063;28;20025;-88
2023/04/03 09:19:35;;;;;;;5.05;3.20;;;;;;;14.13;47.11;98736.28;5026841;28;20026;-90
2023/04/03 09:22:23;;;;;;;6.63;3.08;;;;;;;13.94;47.77;98729.56;5028590;28;20164;-85
2023/04/03 09:25:12;;;;;;;7.80;3.50;;;;;;;14.16;48.69;98733.53;5003529;28;20029;-84
2023/04/03 09:27:38;;;;;;;12.93;3.40;;;;;;;13.82;48.25;98733.38;5010278;28;20050;-84
2023/04/03 09:30:03;;;;;;;89.75;9.10;;;;;;;13.97;48.16;98730.78;5031539;28;20025;-84
2023/04/03 09:32:36;;;;;;;17.50;5.00;;;;;;;14.17;48.43;98720.25;5029903;28;20036;-83
2023/04/03 09:35:18;;;;;;;6.55;3.17;;;;;;;14.20;48.38;98719.53;5045945;28;20076;-84
2023/04/03 09:37:47;;;;;;;4.45;2.95;;;;;;;14.09;48.92;98710.13;5029792;28;20025;-84
2023/04/03 09:40:24;;;;;;;8.05;3.88;;;;;;;13.94;49.61;98706.25;5045102;28;20110;-84
2023/04/03 09:42:50;;;;;;;11.93;5.38;;;;;;;13.85;50.14;98707.31;5028552;28;20460;-87
2023/04/03 09:45:36;;;;;;;10.70;5.28;;;;;;;13.64;49.85;98704.16;5028683;28;20060;-87
2023/04/03 09:48:15;;;;;;;10.43;5.10;;;;;;;13.55;51.37;98708.03;5029693;28;20475;-85
2023/04/03 09:50:50;;;;;;;12.95;4.30;;;;;;;13.70;50.87;98717.53;5042765;28;20033;-87
2023/04/03 09:53:26;;;;;;;11.18;4.05;;;;;;;13.89;51.22;98716.63;5020283;28;20155;-87
2023/04/03 09:55:52;;;;;;;10.57;4.22;;;;;;;13.83;53.29;98718.13;5028090;28;20579;-85
2023/04/03 09:58:42;;;;;;;11.45;4.25;;;;;;;13.70;52.98;98709.09;5031811;28;20144;-84
2023/04/03 10:01:26;;;;;;;7.88;3.95;;;;;;;13.67;55.42;98703.41;5019970;28;20196;-84
2023/04/03 10:04:13;;;;;;;12.25;5.25;;;;;;;13.59;57.11;98708.09;5043870;28;20032;-85
2023/04/03 10:06:48;;;;;;;12.82;5.25;;;;;;;13.68;56.36;98716.25;5026632;28;20491;-85
2023/04/03 10:09:24;;;;;;;11.02;5.05;;;;;;;13.56;58.89;98714.44;5026983;28;20529;-85
2023/04/03 10:12:12;;;;;;;10.70;5.05;;;;;;;13.71;56.90;98709.88;5026993;28;20488;-84
2023/04/03 10:14:52;;;;;;;9.48;6.18;;;;;;;13.50;58.79;98716.75;5027230;28;20068;-84
2023/04/03 10:17:22;;;;;;;12.95;4.68;;;;;;;13.52;58.27;98711.59;5026615;28;20569;-84
2023/04/03 10:20:15;;;;;;;10.80;3.78;;;;;;;13.67;56.17;98709.03;5028223;28;20029;-85
2023/04/03 10:23:19;;;;;;;7.93;4.07;;;;;;;13.81;57.44;98702.81;5025177;28;20084;-84
2023/04/03 10:26:12;;;;;;;6.68;4.35;;;;;;;13.91;57.09;98707.81;5026914;28;20119;-84
2023/04/03 10:29:22;;;;;;;7.05;4.10;;;;;;;13.86;58.98;98710.94;5023992;28;20515;-84
2023/04/03 10:31:59;;;;;;;15.68;4.88;;;;;;;13.74;59.24;98709.13;5005754;28;20090;-84
2023/04/03 10:34:31;;;;;;;8.57;4.30;;;;;;;13.92;60.52;98712.25;5027086;28;20419;-85
2023/04/03 10:37:25;;;;;;;10.73;4.35;;;;;;;13.82;59.47;98715.72;5022825;28;20496;-85
2023/04/03 10:40:01;;;;;;;5.78;3.72;;;;;;;13.51;59.51;98704.31;5018414;28;20025;-85
2023/04/03 10:42:56;;;;;;;7.40;4.47;;;;;;;13.53;59.77;98712.38;5019984;28;20034;-84
2023/04/03 10:45:24;;;;;;;9.48;4.55;;;;;;;13.59;60.89;98724.94;5018967;28;20389;-84
2023/04/03 10:48:16;;;;;;;5.40;3.13;;;;;;;13.55;60.89;98724.88;5022447;28;20504;-85
2023/04/03 10:51:12;;;;;;;7.63;4.57;;;;;;;13.27;63.51;98717.53;5014539;28;20028;-84
2023/04/03 10:53:55;;;;;;;6.75;3.90;;;;;;;13.09;63.30;98714.34;5029998;28;20520;-83
2023/04/03 10:56:30;;;;;;;8.98;5.97;;;;;;;13.23;64.97;98722.22;5018253;28;20030;-84
2023/04/03 10:59:15;;;;;;;7.35;5.38;;;;;;;13.09;63.44;98724.75;5027029;28;20485;-85
2023/04/03 11:01:43;;;;;;;5.53;3.70;;;;;;;13.10;62.35;98717.97;5026733;28;20029;-84
2023/04/03 11:04:11;;;;;;;10.60;3.88;;;;;;;13.08;62.96;98729.56;5025459;28;20065;-85
2023/04/03 11:06:51;;;;;;;5.80;3.95;;;;;;;12.95;63.93;98731.72;5015003;28;20116;-85
2023/04/03 11:09:27;;;;;;;7.50;4.25;;;;;;;12.95;64.64;98736.50;5024287;28;20037;-86
2023/04/03 11:12:06;;;;;;;3.65;3.25;;;;;;;12.90;63.45;98730.00;5020505;28;20056;-85
2023/04/03 11:14:37;;;;;;;7.45;3.80;;;;;;;12.99;63.19;98732.59;5024947;28;20040;-84
2023/04/03 11:17:09;;;;;;;5.53;4.03;;;;;;;12.99;64.36;98732.59;5020881;28;20056;-84
2023/04/03 11:19:54;;;;;;;8.95;4.72;;;;;;;12.92;66.55;98724.03;5022612;28;20474;-85
2023/04/03 11:22:33;;;;;;;9.77;5.57;;;;;;;12.67;67.92;98720.69;5022318;28;20158;-85
2023/04/03 11:25:16;;;;;;;18.15;7.13;;;;;;;12.61;71.20;98717.38;5016491;28;20507;-86
2023/04/03 11:27:45;;;;;;;7.25;4.80;;;;;;;12.50;72.88;98714.34;5023769;28;20036;-86
2023/04/03 11:30:30;;;;;;;6.53;4.43;;;;;;;12.45;74.77;98700.56;5014309;28;20022;-85
2023/04/03 11:33:04;;;;;;;7.18;4.63;;;;;;;12.38;75.58;98708.84;5026853;28;20087;-86
2023/04/03 11:35:31;;;;;;;5.85;3.67;;;;;;;12.29;74.80;98700.63;5033945;28;20540;-85
2023/04/03 11:37:59;;;;;;;6.68;4.13;;;;;;;12.16;76.12;98706.34;5040612;28;20033;-86
2023/04/03 11:40:34;;;;;;;6.20;4.13;;;;;;;12.33;76.88;98705.13;5018302;28;20429;-87
2023/04/03 11:43:00;;;;;;;5.10;3.88;;;;;;;12.24;76.50;98712.91;5029758;28;20557;-85